Time;durP1;ratioP1;P1;durP2;ratioP2;P2;SDS_P1;SDS_P2;PMS_P1;PMS_P2;Temp;Humidity;BMP_temperature;BMP_pressure;BME280_temperature;BME280_humidity;BME280_pressure;Samples;Min_cycle;Max_cycle;Signal;HPM_P1;HPM_P2
2023/01/04 00:00:15;;;;;;;23.52;17.20;;;12.50;89.00;;;;;;10928615;32;20042;-73
2023/01/04 00:06:19;;;;;;;18.35;13.62;;;12.50;89.20;;;;;;10942142;32;20023;-74
2023/01/04 00:12:21;;;;;;;23.10;12.95;;;12.70;88.90;;;;;;10942065;32;20015;-73
2023/01/04 00:18:24;;;;;;;26.75;15.93;;;12.50;89.00;;;;;;10941879;32;20096;-73
2023/01/04 00:24:26;;;;;;;16.17;11.77;;;12.50;89.00;;;;;;10948069;27;20038;-73
2023/01/04 00:30:29;;;;;;;17.40;10.90;;;12.70;89.00;;;;;;10939482;32;20053;-73
2023/01/04 00:36:32;;;;;;;19.23;12.10;;;12.50;88.80;;;;;;10941525;32;20329;-73
2023/01/04 00:42:35;;;;;;;19.15;13.50;;;12.50;89.00;;;;;;10912385;32;20027;-73
2023/01/04 00:48:37;;;;;;;18.65;13.27;;;12.60;88.80;;;;;;10903828;32;20188;-73
2023/01/04 00:54:43;;;;;;;16.15;11.50;;;12.70;88.50;;;;;;10902861;32;20011;-73
2023/01/04 01:00:46;;;;;;;21.85;13.77;;;12.70;88.30;;;;;;10903633;32;20165;-73
2023/01/04 01:06:48;;;;;;;20.73;12.35;;;12.70;88.40;;;;;;10909326;32;20027;-74
2023/01/04 01:12:50;;;;;;;17.15;11.02;;;12.60;88.40;;;;;;10910542;32;20023;-73
2023/01/04 01:18:53;;;;;;;14.63;11.15;;;12.50;88.40;;;;;;10906401;32;20042;-74
2023/01/04 01:24:56;;;;;;;17.05;11.25;;;12.30;88.50;;;;;;10921480;32;20054;-74
2023/01/04 01:31:03;;;;;;;15.48;10.20;;;12.20;88.70;;;;;;10909973;32;20047;-73
2023/01/04 01:37:05;;;;;;;18.50;12.93;;;12.00;88.90;;;;;;10909702;32;20321;-74
2023/01/04 01:43:22;;;;;;;14.98;9.90;;;12.20;89.10;;;;;;10909423;32;20023;-74
2023/01/04 01:49:29;;;;;;;15.52;10.60;;;12.30;88.80;;;;;;10909264;32;20404;-73
2023/01/04 01:55:35;;;;;;;16.65;9.50;;;12.10;88.90;;;;;;10920401;32;20035;-73
2023/01/04 02:01:37;;;;;;;12.95;9.70;;;12.10;88.90;;;;;;10908834;32;20024;-73
2023/01/04 02:07:40;;;;;;;21.15;13.65;;;12.00;89.00;;;;;;10908873;32;20019;-73
2023/01/04 02:20:12;;;;;;;14.98;11.68;;;12.30;88.70;;;;;;10908224;32;20020;-74
2023/01/04 02:27:05;;;;;;;23.00;13.45;;;12.20;88.70;;;;;;10907975;32;20027;-74
2023/01/04 02:33:20;;;;;;;18.83;13.93;;;12.30;88.70;;;;;;10907724;32;20443;-73
2023/01/04 02:39:54;;;;;;;17.05;12.60;;;12.20;88.40;;;;;;10907564;32;20038;-73
2023/01/04 02:46:14;;;;;;;24.52;18.45;;;12.00;88.70;;;;;;10907239;32;20045;-73
2023/01/04 02:52:17;;;;;;;17.40;12.52;;;11.80;88.90;;;;;;10907084;32;20028;-73
2023/01/04 02:59:03;;;;;;;16.15;13.25;;;12.00;89.00;;;;;;10906900;32;20038;-73
2023/01/04 03:18:43;;;;;;;24.20;19.20;;;11.70;88.90;;;;;;10790786;33;20339;-73
2023/01/04 03:43:08;;;;;;;17.92;14.50;;;11.50;88.90;;;;;;10790161;33;20051;-73
2023/01/04 03:51:04;;;;;;;17.05;13.05;;;11.50;88.90;;;;;;10905201;32;20310;-73
2023/01/04 03:57:08;;;;;;;17.42;13.40;;;11.70;89.00;;;;;;10904880;32;20053;-74
2023/01/04 04:03:10;;;;;;;12.60;9.57;;;11.80;88.70;;;;;;10904725;32;20432;-73
2023/01/04 04:09:12;;;;;;;16.67;11.15;;;11.70;88.50;;;;;;10904621;32;20011;-73
2023/01/04 04:15:15;;;;;;;13.60;10.50;;;11.40;88.70;;;;;;10904420;32;20069;-74
2023/01/04 04:21:17;;;;;;;17.62;13.07;;;11.50;88.90;;;;;;10904234;32;20382;-74
2023/01/04 04:27:19;;;;;;;10.23;7.95;;;11.60;88.60;;;;;;10904017;32;20045;-74
2023/01/04 04:33:21;;;;;;;13.90;10.07;;;11.70;88.70;;;;;;10904108;32;20054;-74
2023/01/04 04:39:23;;;;;;;13.32;9.48;;;11.80;88.50;;;;;;10907715;32;20019;-73
2023/01/04 04:45:24;;;;;;;15.43;11.80;;;11.80;88.30;;;;;;10907564;32;20049;-73
2023/01/04 04:51:26;;;;;;;12.60;9.00;;;11.80;88.50;;;;;;10911387;32;20019;-73
2023/01/04 04:57:29;;;;;;;12.73;7.32;;;12.10;88.20;;;;;;10911107;32;20012;-74
2023/01/04 05:03:31;;;;;;;10.70;8.27;;;12.00;87.90;;;;;;10910853;32;20325;-74
2023/01/04 05:09:33;;;;;;;15.10;9.77;;;11.80;88.00;;;;;;10906795;32;20019;-74
2023/01/04 05:15:37;;;;;;;12.60;8.90;;;11.80;88.20;;;;;;10910537;32;20081;-73
2023/01/04 05:21:39;;;;;;;14.18;9.63;;;11.70;88.20;;;;;;10910167;32;20016;-73
2023/01/04 05:27:41;;;;;;;15.73;10.95;;;11.30;88.20;;;;;;10909356;32;20306;-73
2023/01/04 05:33:43;;;;;;;12.77;9.38;;;11.10;88.20;;;;;;10921190;32;20050;-73
2023/01/04 05:39:45;;;;;;;15.27;10.00;;;10.90;88.60;;;;;;10909715;32;20020;-73
2023/01/04 05:45:50;;;;;;;14.98;10.43;;;10.90;88.50;;;;;;10909416;32;20015;-73
2023/01/04 05:51:51;;;;;;;24.77;11.88;;;11.00;88.50;;;;;;10907837;32;20049;-73
2023/01/04 05:57:53;;;;;;;15.23;10.40;;;11.20;88.50;;;;;;10909087;32;20377;-73
2023/01/04 06:03:56;;;;;;;16.52;13.23;;;11.30;88.10;;;;;;10907894;32;20027;-74
2023/01/04 06:09:58;;;;;;;14.45;11.00;;;11.50;88.00;;;;;;10908631;32;20023;-73
2023/01/04 06:16:00;;;;;;;15.82;10.50;;;11.20;87.70;;;;;;10908511;32;20397;-74
2023/01/04 06:22:02;;;;;;;14.77;12.02;;;10.90;87.80;;;;;;10908102;32;20015;-73
2023/01/04 06:28:04;;;;;;;19.27;16.70;;;10.60;87.90;;;;;;10907987;32;20429;-73
2023/01/04 06:34:06;;;;;;;26.83;18.37;;;10.50;88.10;;;;;;10907756;32;20016;-73
2023/01/04 06:40:10;;;;;;;31.33;19.62;;;10.60;88.50;;;;;;10934321;32;20023;-74
2023/01/04 06:46:14;;;;;;;45.90;26.48;;;11.20;88.10;;;;;;10942745;32;20027;-73
2023/01/04 06:52:15;;;;;;;37.47;23.05;;;11.60;87.40;;;;;;10944823;32;20321;-74
2023/01/04 06:58:18;;;;;;;42.88;27.17;;;11.70;87.10;;;;;;10951709;32;20023;-73
2023/01/04 07:04:20;;;;;;;24.55;17.52;;;11.90;86.80;;;;;;10943423;32;20019;-73
2023/01/04 07:10:22;;;;;;;38.35;27.08;;;11.80;86.20;;;;;;10944181;32;20332;-73
2023/01/04 07:16:24;;;;;;;26.60;15.85;;;11.30;86.50;;;;;;10943861;32;20015;-73
2023/01/04 07:22:25;;;;;;;21.00;14.60;;;11.20;87.10;;;;;;10942837;32;20041;-73
2023/01/04 07:35:06;;;;;;;18.98;13.40;;;10.80;87.30;;;;;;10939171;32;20038;-74
2023/01/04 07:41:08;;;;;;;16.85;12.55;;;11.00;87.30;;;;;;10943040;32;20392;-73
2023/01/04 07:47:10;;;;;;;14.38;9.90;;;11.10;87.00;;;;;;10942756;32;20018;-73
2023/01/04 07:53:12;;;;;;;18.87;15.98;;;10.80;86.70;;;;;;10942192;32;20026;-73
2023/01/04 07:59:18;;;;;;;17.83;11.85;;;10.90;87.30;;;;;;10940156;32;20444;-73
2023/01/04 08:05:21;;;;;;;20.15;17.05;;;10.80;86.80;;;;;;10941438;32;20057;-73
2023/01/04 08:11:23;;;;;;;31.05;20.75;;;10.80;87.20;;;;;;10937693;32;20019;-73
2023/01/04 08:17:26;;;;;;;23.15;18.55;;;11.40;86.50;;;;;;10938992;32;20026;-73
2023/01/04 08:23:28;;;;;;;19.67;16.50;;;11.80;85.70;;;;;;10534061;27;12214641;-74
2023/01/04 08:29:30;;;;;;;16.55;14.73;;;12.00;85.10;;;;;;10900009;32;20031;-73
2023/01/04 08:35:33;;;;;;;15.95;12.45;;;12.00;84.70;;;;;;10899292;32;20058;-73
2023/01/04 08:41:49;;;;;;;17.35;13.68;;;11.70;84.90;;;;;;10899298;32;20058;-73
2023/01/04 08:47:51;;;;;;;17.95;14.20;;;11.20;85.50;;;;;;10836877;32;20036;-73
2023/01/04 08:53:53;;;;;;;13.50;11.75;;;10.70;85.90;;;;;;10814698;33;20445;-72
2023/01/04 08:59:55;;;;;;;15.25;11.88;;;10.70;86.60;;;;;;10793614;33;20082;-73
2023/01/04 09:06:06;;;;;;;17.67;13.52;;;10.80;86.50;;;;;;10772190;33;20035;-72
2023/01/04 09:12:08;;;;;;;19.58;13.52;;;10.70;86.60;;;;;;10779142;33;20398;-73
2023/01/04 09:18:11;;;;;;;15.85;13.00;;;10.70;86.60;;;;;;10784651;33;20051;-73
2023/01/04 09:24:13;;;;;;;13.18;9.98;;;10.60;86.30;;;;;;10770170;33;20052;-73
2023/01/04 09:30:15;;;;;;;14.35;10.90;;;10.70;86.60;;;;;;10792679;33;20008;-73
2023/01/04 09:36:18;;;;;;;12.60;9.57;;;10.70;87.10;;;;;;10792410;33;20040;-72
2023/01/04 09:42:31;;;;;;;14.35;12.02;;;11.40;87.10;;;;;;10792174;33;20308;-73
2023/01/04 09:48:40;;;;;;;14.13;11.02;;;11.70;86.80;;;;;;10791651;33;20016;-73
2023/01/04 09:55:10;;;;;;;16.93;12.67;;;11.80;86.90;;;;;;10791831;33;20432;-73
2023/01/04 10:01:21;;;;;;;13.98;11.12;;;12.20;87.40;;;;;;10789192;33;20012;-72
2023/01/04 10:07:27;;;;;;;13.10;11.40;;;12.50;86.60;;;;;;10778313;33;20024;-73
2023/01/04 10:13:38;;;;;;;12.32;8.77;;;12.30;86.90;;;;;;10789911;33;20028;-72
2023/01/04 10:20:00;;;;;;;11.02;9.43;;;12.30;87.40;;;;;;10787086;33;20323;-73
2023/01/04 10:26:17;;;;;;;13.62;10.10;;;12.50;87.70;;;;;;10764430;32;20040;-73
2023/01/04 10:32:37;;;;;;;14.63;12.57;;;12.60;87.00;;;;;;10790743;33;20039;-72
2023/01/04 10:38:40;;;;;;;13.98;11.93;;;12.50;87.10;;;;;;10790250;33;20054;-73
2023/01/04 10:45:07;;;;;;;14.77;12.95;;;12.50;87.30;;;;;;10790315;33;20016;-72
2023/01/04 10:51:14;;;;;;;21.10;15.55;;;12.70;86.10;;;;;;10780268;32;20179;-73
2023/01/04 10:57:51;;;;;;;20.55;12.77;;;12.50;85.90;;;;;;10796961;32;20086;-74
2023/01/04 11:03:57;;;;;;;15.80;12.15;;;12.60;85.70;;;;;;10718076;33;20025;-74
2023/01/04 11:10:07;;;;;;;23.98;19.55;;;12.70;86.60;;;;;;10718314;33;20320;-74
2023/01/04 11:16:10;;;;;;;25.30;18.67;;;12.70;85.80;;;;;;10718936;33;20017;-74
2023/01/04 11:22:28;;;;;;;21.85;16.48;;;12.80;85.10;;;;;;10718285;33;20051;-73
2023/01/04 11:28:41;;;;;;;16.45;13.32;;;13.00;85.40;;;;;;10620994;33;20026;-74
2023/01/04 11:34:53;;;;;;;26.08;17.33;;;13.20;85.50;;;;;;10608053;33;20048;-74
2023/01/04 11:41:06;;;;;;;22.62;16.42;;;13.30;85.40;;;;;;10775813;33;20027;-74
2023/01/04 11:47:24;;;;;;;23.25;18.75;;;13.50;85.20;;;;;;10786905;33;20346;-74
2023/01/04 11:53:31;;;;;;;21.40;17.20;;;13.50;84.70;;;;;;10775375;33;20044;-74
2023/01/04 11:59:33;;;;;;;20.48;15.02;;;13.50;84.90;;;;;;10775084;33;20355;-74
2023/01/04 12:05:36;;;;;;;19.00;13.77;;;13.60;84.00;;;;;;10788053;33;20047;-74
2023/01/04 12:11:59;;;;;;;17.50;12.68;;;13.40;84.00;;;;;;10774891;33;20322;-74
2023/01/04 12:18:15;;;;;;;15.07;11.40;;;13.50;84.60;;;;;;10787961;33;20039;-74
2023/01/04 12:24:25;;;;;;;12.68;10.73;;;13.60;84.60;;;;;;10787201;33;20051;-71
2023/01/04 12:30:45;;;;;;;14.40;12.40;;;13.70;84.40;;;;;;10788175;33;20306;-74
2023/01/04 12:36:47;;;;;;;13.90;11.18;;;13.70;84.80;;;;;;10787391;33;20020;-74
2023/01/04 12:43:14;;;;;;;17.98;13.27;;;13.70;84.90;;;;;;10774095;33;20036;-74
2023/01/04 12:49:28;;;;;;;23.62;16.60;;;13.70;84.90;;;;;;10773936;33;20110;-75
2023/01/04 12:55:31;;;;;;;18.10;12.60;;;13.70;84.60;;;;;;10773913;33;20358;-74
2023/01/04 13:01:35;;;;;;;19.42;15.15;;;13.80;84.20;;;;;;10778125;33;20322;-74
2023/01/04 13:07:49;;;;;;;17.98;12.02;;;13.80;84.70;;;;;;10793129;33;20094;-74
2023/01/04 13:13:56;;;;;;;13.52;9.52;;;13.70;83.90;;;;;;10789706;33;20058;-74
2023/01/04 13:19:59;;;;;;;18.35;16.40;;;13.80;84.10;;;;;;10792802;33;20059;-74
2023/01/04 13:26:27;;;;;;;21.00;17.23;;;13.90;83.90;;;;;;10792713;33;20029;-74
2023/01/04 13:32:32;;;;;;;16.67;12.75;;;14.00;84.20;;;;;;10792666;33;20024;-74
2023/01/04 13:38:38;;;;;;;18.58;13.70;;;14.00;83.40;;;;;;10779235;33;20055;-74
2023/01/04 13:44:52;;;;;;;21.75;13.65;;;14.00;83.20;;;;;;10792194;33;20043;-74
2023/01/04 13:51:04;;;;;;;14.00;11.12;;;14.00;82.40;;;;;;10792129;33;20024;-74
2023/01/04 13:57:09;;;;;;;15.20;9.85;;;14.00;82.80;;;;;;10791858;33;20052;-74
2023/01/04 14:03:20;;;;;;;22.98;14.38;;;14.20;83.80;;;;;;10791691;33;20024;-74
2023/01/04 14:09:31;;;;;;;14.87;10.80;;;14.30;83.30;;;;;;10791425;33;20025;-73
2023/01/04 14:15:33;;;;;;;15.65;9.32;;;14.20;83.70;;;;;;10791409;33;20046;-73
2023/01/04 14:21:36;;;;;;;20.52;15.73;;;14.30;84.30;;;;;;10787847;33;20020;-73
2023/01/04 14:27:43;;;;;;;17.70;11.88;;;14.60;83.70;;;;;;10777343;33;20347;-74
2023/01/04 14:33:48;;;;;;;18.92;13.70;;;14.90;84.30;;;;;;10820940;33;20024;-74
2023/01/04 14:39:51;;;;;;;21.35;16.10;;;15.10;83.50;;;;;;10827526;33;20024;-73
2023/01/04 14:45:53;;;;;;;31.23;25.67;;;15.20;83.20;;;;;;10827326;33;20444;-73
2023/01/04 14:51:57;;;;;;;25.00;21.05;;;14.80;83.60;;;;;;10812722;33;20035;-73
2023/01/04 14:57:59;;;;;;;37.45;32.13;;;14.20;83.60;;;;;;10810529;33;20046;-73
2023/01/04 15:04:06;;;;;;;33.10;25.40;;;13.70;84.00;;;;;;10826771;33;20046;-73
2023/01/04 15:10:18;;;;;;;26.27;21.83;;;13.30;84.20;;;;;;10826625;33;20058;-73
2023/01/04 15:16:20;;;;;;;65.40;30.85;;;13.00;84.90;;;;;;10800540;33;20036;-73
2023/01/04 15:22:22;;;;;;;23.83;19.00;;;12.70;84.90;;;;;;10822255;32;20043;-73
2023/01/04 15:28:25;;;;;;;18.55;15.05;;;12.50;85.50;;;;;;10825944;33;20046;-73
2023/01/04 15:34:27;;;;;;;23.25;14.98;;;12.70;85.70;;;;;;10825871;33;20043;-73
2023/01/04 15:40:30;;;;;;;20.73;12.85;;;12.70;85.90;;;;;;10811257;33;20028;-73
2023/01/04 15:46:32;;;;;;;17.73;10.38;;;12.60;85.80;;;;;;10825555;33;20424;-73
2023/01/04 15:52:34;;;;;;;24.30;18.33;;;12.50;86.20;;;;;;10825443;33;20020;-73
2023/01/04 15:58:36;;;;;;;32.63;24.00;;;12.70;86.70;;;;;;10825213;33;20008;-73
2023/01/04 16:04:38;;;;;;;20.40;16.52;;;13.10;86.60;;;;;;10822736;33;20028;-73
2023/01/04 16:10:40;;;;;;;19.02;15.48;;;13.20;86.00;;;;;;10824903;33;20390;-73
2023/01/04 16:16:42;;;;;;;19.27;14.95;;;13.20;86.20;;;;;;10811415;33;20333;-73
2023/01/04 16:23:18;;;;;;;18.37;12.35;;;13.30;86.30;;;;;;10787180;27;20390;-74
2023/01/04 16:29:20;;;;;;;13.30;11.07;;;13.30;86.00;;;;;;10783816;32;20349;-73
2023/01/04 16:35:22;;;;;;;18.80;12.93;;;13.00;86.40;;;;;;10771532;32;20055;-73
2023/01/04 16:41:24;;;;;;;24.60;15.93;;;12.90;86.80;;;;;;10784172;32;20032;-73
2023/01/04 16:47:26;;;;;;;23.02;17.12;;;13.20;87.20;;;;;;10784265;32;20425;-73
2023/01/04 16:53:29;;;;;;;27.67;19.40;;;13.40;87.40;;;;;;10840057;32;20024;-73
2023/01/04 16:59:31;;;;;;;22.55;15.93;;;13.50;87.10;;;;;;10860873;32;20386;-73
2023/01/04 17:05:40;;;;;;;20.33;14.87;;;13.50;86.70;;;;;;10860507;32;20050;-73
2023/01/04 17:11:55;;;;;;;16.40;12.60;;;13.50;86.60;;;;;;10860082;32;20020;-73
2023/01/04 17:17:57;;;;;;;19.67;17.08;;;13.20;86.60;;;;;;10860440;32;20046;-73
2023/01/04 17:23:59;;;;;;;21.08;17.10;;;13.20;86.50;;;;;;10845439;32;20342;-73
2023/01/04 17:30:03;;;;;;;19.45;15.13;;;13.30;86.60;;;;;;10831684;32;20042;-73
2023/01/04 17:36:07;;;;;;;15.68;13.77;;;13.30;86.70;;;;;;10860062;32;20047;-73
2023/01/04 17:42:10;;;;;;;16.02;12.77;;;13.00;86.70;;;;;;10821010;32;20070;-73
2023/01/04 17:48:12;;;;;;;13.60;11.60;;;12.60;87.10;;;;;;10826594;32;20032;-73
2023/01/04 17:54:14;;;;;;;18.98;14.27;;;12.30;87.20;;;;;;10828774;33;20042;-73
2023/01/04 18:00:16;;;;;;;32.22;24.45;;;12.20;87.60;;;;;;10824691;33;20024;-73
2023/01/04 18:06:20;;;;;;;28.00;22.00;;;12.60;87.20;;;;;;10828458;32;20063;-73
2023/01/04 18:12:22;;;;;;;29.50;24.23;;;13.00;86.30;;;;;;10828275;33;20050;-73
2023/01/04 18:18:24;;;;;;;22.65;18.35;;;13.10;85.70;;;;;;10827833;33;20016;-73
2023/01/04 18:24:26;;;;;;;26.02;19.12;;;13.20;85.40;;;;;;10827919;33;20086;-73
2023/01/04 18:30:28;;;;;;;23.08;18.92;;;13.20;85.00;;;;;;10827903;33;20024;-73
2023/01/04 18:36:32;;;;;;;21.00;17.35;;;13.20;84.90;;;;;;10860075;32;20036;-73
2023/01/04 18:42:34;;;;;;;19.30;17.08;;;13.30;84.70;;;;;;10864597;32;20038;-73
2023/01/04 18:48:36;;;;;;;22.40;18.60;;;13.20;84.60;;;;;;10864334;32;20096;-73
2023/01/04 18:54:38;;;;;;;23.00;18.02;;;13.10;84.50;;;;;;10863451;32;20334;-73
2023/01/04 19:00:40;;;;;;;22.05;18.27;;;13.10;84.50;;;;;;10863692;32;20330;-73
2023/01/04 19:06:43;;;;;;;26.70;23.83;;;13.00;84.20;;;;;;10863752;32;20401;-73
2023/01/04 19:12:45;;;;;;;24.90;19.77;;;13.00;84.00;;;;;;10863664;32;20050;-73
2023/01/04 19:18:47;;;;;;;26.20;22.25;;;12.90;84.70;;;;;;10863353;32;20051;-73
2023/01/04 19:24:49;;;;;;;18.15;15.05;;;13.00;84.40;;;;;;10862984;32;20032;-73
2023/01/04 19:30:51;;;;;;;25.25;18.45;;;13.00;84.30;;;;;;10848278;32;20035;-73
2023/01/04 19:36:53;;;;;;;24.60;18.80;;;12.80;84.10;;;;;;10862831;32;20012;-73
2023/01/04 19:42:56;;;;;;;27.75;22.50;;;12.70;84.00;;;;;;10862567;32;20424;-73
2023/01/04 19:48:58;;;;;;;25.60;19.77;;;12.50;84.30;;;;;;10858482;32;20012;-73
2023/01/04 19:55:01;;;;;;;22.50;17.75;;;12.50;84.10;;;;;;10862304;32;20046;-73
2023/01/04 20:01:04;;;;;;;23.50;19.15;;;12.30;83.90;;;;;;10848774;32;20058;-73
2023/01/04 20:07:06;;;;;;;25.05;20.00;;;12.20;84.00;;;;;;10848288;32;20039;-73
2023/01/04 20:13:08;;;;;;;27.73;19.85;;;11.90;84.10;;;;;;10861510;32;20054;-74
2023/01/04 20:19:12;;;;;;;28.33;22.25;;;11.80;84.70;;;;;;10861651;32;20020;-73
2023/01/04 20:25:15;;;;;;;41.35;28.92;;;11.80;84.30;;;;;;10839873;32;20036;-73
2023/01/04 20:31:18;;;;;;;40.33;26.85;;;12.10;84.10;;;;;;10824173;33;20090;-73
2023/01/04 20:37:20;;;;;;;31.12;24.95;;;12.20;83.50;;;;;;10824596;33;20028;-73
2023/01/04 20:43:35;;;;;;;28.90;18.10;;;12.20;83.40;;;;;;10823765;33;20043;-73
2023/01/04 20:49:38;;;;;;;20.60;16.67;;;12.10;83.20;;;;;;10823563;33;20434;-73
2023/01/04 20:55:42;;;;;;;18.52;15.98;;;12.10;83.50;;;;;;10823739;33;20004;-73
2023/01/04 21:01:44;;;;;;;18.80;15.25;;;12.10;83.80;;;;;;10821565;33;20342;-73
2023/01/04 21:07:47;;;;;;;20.37;15.82;;;12.00;83.80;;;;;;10823467;33;20169;-73
2023/01/04 21:13:52;;;;;;;22.25;16.58;;;11.90;83.50;;;;;;10823386;33;20028;-73
2023/01/04 21:19:54;;;;;;;22.55;17.40;;;11.80;83.40;;;;;;10823824;32;20024;-73
2023/01/04 21:25:56;;;;;;;19.67;16.87;;;11.70;83.10;;;;;;10829514;33;20396;-74
2023/01/04 21:31:58;;;;;;;20.27;17.08;;;11.80;83.10;;;;;;10829541;33;20386;-73
2023/01/04 21:38:01;;;;;;;22.13;19.35;;;11.80;83.30;;;;;;10829384;33;20028;-73
2023/01/04 21:44:03;;;;;;;30.12;25.40;;;11.80;83.20;;;;;;10829265;33;20296;-73
2023/01/04 21:50:05;;;;;;;27.85;20.90;;;11.70;82.80;;;;;;10825383;33;20050;-73
2023/01/04 21:56:17;;;;;;;20.95;16.77;;;11.60;82.70;;;;;;10826627;33;20066;-73
2023/01/04 22:02:20;;;;;;;17.80;14.85;;;11.20;83.30;;;;;;10828724;33;20024;-73
2023/01/04 22:08:22;;;;;;;20.15;15.93;;;11.10;84.00;;;;;;10824548;33;20028;-73
2023/01/04 22:14:24;;;;;;;21.48;16.52;;;11.20;83.50;;;;;;10828317;33;20047;-73
2023/01/04 22:20:26;;;;;;;21.55;18.15;;;11.10;83.60;;;;;;10828227;32;20024;-73
2023/01/04 22:26:29;;;;;;;19.50;16.95;;;10.90;83.70;;;;;;10802503;33;20440;-74
2023/01/04 22:32:31;;;;;;;27.95;21.98;;;11.00;83.80;;;;;;10827510;32;20028;-73
2023/01/04 22:38:38;;;;;;;25.15;20.77;;;11.00;83.50;;;;;;10827709;33;20066;-73
2023/01/04 22:44:40;;;;;;;20.95;16.95;;;11.20;83.20;;;;;;10813287;33;20070;-73
2023/01/04 22:50:42;;;;;;;20.35;17.55;;;11.20;83.10;;;;;;10827251;33;20357;-73
2023/01/04 22:56:44;;;;;;;18.20;16.00;;;11.10;83.00;;;;;;10809566;33;20432;-73
2023/01/04 23:02:46;;;;;;;18.42;13.00;;;10.70;83.40;;;;;;10827044;33;20051;-73
2023/01/04 23:08:54;;;;;;;16.15;12.75;;;10.70;83.50;;;;;;10813593;33;20051;-73
2023/01/04 23:14:56;;;;;;;17.20;15.43;;;10.30;83.90;;;;;;10813433;33;20334;-73
2023/01/04 23:20:59;;;;;;;22.67;20.27;;;10.10;84.60;;;;;;10826328;33;20020;-73
2023/01/04 23:27:01;;;;;;;21.83;17.50;;;10.40;84.80;;;;;;10826266;33;20028;-73
2023/01/04 23:33:03;;;;;;;20.25;16.62;;;10.80;84.10;;;;;;10812967;33;20462;-73
2023/01/04 23:39:14;;;;;;;19.60;16.10;;;10.70;83.70;;;;;;10825901;33;20402;-73
2023/01/04 23:45:22;;;;;;;17.52;14.52;;;10.60;84.00;;;;;;10811574;32;20039;-73
2023/01/04 23:51:41;;;;;;;17.48;15.25;;;10.60;84.00;;;;;;10812181;33;20337;-73
2023/01/04 23:57:43;;;;;;;15.27;12.77;;;10.50;83.70;;;;;;10827316;33;20027;-73
